sensor_id;sensor_type;location;lat;lon;timestamp;P1;durP1;ratioP1;P2;durP2;ratioP2
48516;SDS011;34310;51.904;4.256;2023-03-03T00:01:33;5.32;;;4.43;;
48516;SDS011;34310;51.904;4.256;2023-03-03T00:04:00;5.28;;;4.38;;
48516;SDS011;34310;51.904;4.256;2023-03-03T00:06:28;4.57;;;3.83;;
48516;SDS011;34310;51.904;4.256;2023-03-03T00:08:55;5.13;;;4.55;;
48516;SDS011;34310;51.904;4.256;2023-03-03T00:11:23;4.88;;;4.03;;
48516;SDS011;34310;51.904;4.256;2023-03-03T00:13:52;4.70;;;4.18;;
48516;SDS011;34310;51.904;4.256;2023-03-03T00:16:23;4.68;;;4.20;;
48516;SDS011;34310;51.904;4.256;2023-03-03T00:18:53;4.60;;;3.97;;
48516;SDS011;34310;51.904;4.256;2023-03-03T00:21:25;5.38;;;4.50;;
48516;SDS011;34310;51.904;4.256;2023-03-03T00:27:01;5.88;;;4.80;;
48516;SDS011;34310;51.904;4.256;2023-03-03T00:29:54;4.88;;;3.80;;
48516;SDS011;34310;51.904;4.256;2023-03-03T00:32:27;5.03;;;4.35;;
48516;SDS011;34310;51.904;4.256;2023-03-03T00:35:16;5.32;;;4.20;;
48516;SDS011;34310;51.904;4.256;2023-03-03T00:37:49;4.32;;;3.92;;
48516;SDS011;34310;51.904;4.256;2023-03-03T00:40:23;4.40;;;4.00;;
48516;SDS011;34310;51.904;4.256;2023-03-03T00:42:57;4.82;;;4.25;;
48516;SDS011;34310;51.904;4.256;2023-03-03T00:45:30;4.88;;;4.40;;
48516;SDS011;34310;51.904;4.256;2023-03-03T00:48:20;5.17;;;4.23;;
48516;SDS011;34310;51.904;4.256;2023-03-03T00:50:53;5.20;;;4.43;;
48516;SDS011;34310;51.904;4.256;2023-03-03T00:53:23;5.35;;;4.10;;
48516;SDS011;34310;51.904;4.256;2023-03-03T00:55:52;5.18;;;4.05;;
48516;SDS011;34310;51.904;4.256;2023-03-03T00:58:20;4.93;;;4.43;;
48516;SDS011;34310;51.904;4.256;2023-03-03T01:00:50;4.57;;;4.10;;
48516;SDS011;34310;51.904;4.256;2023-03-03T01:03:22;4.82;;;4.25;;
48516;SDS011;34310;51.904;4.256;2023-03-03T01:05:51;4.45;;;4.00;;
48516;SDS011;34310;51.904;4.256;2023-03-03T01:08:20;5.18;;;4.30;;
48516;SDS011;34310;51.904;4.256;2023-03-03T01:10:49;5.72;;;4.57;;
48516;SDS011;34310;51.904;4.256;2023-03-03T01:13:19;5.25;;;4.70;;
48516;SDS011;34310;51.904;4.256;2023-03-03T01:15:52;5.63;;;4.43;;
48516;SDS011;34310;51.904;4.256;2023-03-03T01:18:19;5.93;;;4.80;;
48516;SDS011;34310;51.904;4.256;2023-03-03T01:20:47;5.63;;;4.68;;
48516;SDS011;34310;51.904;4.256;2023-03-03T01:23:14;5.03;;;4.47;;
48516;SDS011;34310;51.904;4.256;2023-03-03T01:25:41;5.60;;;4.57;;
48516;SDS011;34310;51.904;4.256;2023-03-03T01:28:09;5.35;;;4.47;;
48516;SDS011;34310;51.904;4.256;2023-03-03T01:30:36;4.85;;;4.35;;
48516;SDS011;34310;51.904;4.256;2023-03-03T01:33:04;5.55;;;4.70;;
48516;SDS011;34310;51.904;4.256;2023-03-03T01:35:31;5.50;;;4.82;;
48516;SDS011;34310;51.904;4.256;2023-03-03T01:38:01;4.70;;;4.22;;
48516;SDS011;34310;51.904;4.256;2023-03-03T01:40:34;5.38;;;4.65;;
48516;SDS011;34310;51.904;4.256;2023-03-03T01:43:01;5.18;;;4.68;;
48516;SDS011;34310;51.904;4.256;2023-03-03T01:45:31;5.70;;;4.75;;
48516;SDS011;34310;51.904;4.256;2023-03-03T01:48:17;5.05;;;4.55;;
48516;SDS011;34310;51.904;4.256;2023-03-03T01:51:11;4.80;;;4.40;;
48516;SDS011;34310;51.904;4.256;2023-03-03T01:53:49;4.78;;;4.28;;
48516;SDS011;34310;51.904;4.256;2023-03-03T01:56:22;4.68;;;4.20;;
48516;SDS011;34310;51.904;4.256;2023-03-03T01:58:58;5.45;;;4.25;;
48516;SDS011;34310;51.904;4.256;2023-03-03T02:01:53;4.95;;;3.97;;
48516;SDS011;34310;51.904;4.256;2023-03-03T02:04:20;4.38;;;3.97;;
48516;SDS011;34310;51.904;4.256;2023-03-03T02:06:58;4.82;;;3.85;;
48516;SDS011;34310;51.904;4.256;2023-03-03T02:09:47;3.92;;;3.50;;
48516;SDS011;34310;51.904;4.256;2023-03-03T02:12:21;4.25;;;3.70;;
48516;SDS011;34310;51.904;4.256;2023-03-03T02:14:53;4.07;;;3.47;;
48516;SDS011;34310;51.904;4.256;2023-03-03T02:17:20;3.95;;;3.53;;
48516;SDS011;34310;51.904;4.256;2023-03-03T02:22:59;3.20;;;2.90;;
48516;SDS011;34310;51.904;4.256;2023-03-03T02:25:34;4.05;;;3.35;;
48516;SDS011;34310;51.904;4.256;2023-03-03T02:28:17;3.55;;;2.78;;
48516;SDS011;34310;51.904;4.256;2023-03-03T02:30:45;4.10;;;3.20;;
48516;SDS011;34310;51.904;4.256;2023-03-03T02:33:12;2.97;;;2.67;;
48516;SDS011;34310;51.904;4.256;2023-03-03T02:35:40;3.53;;;2.85;;
48516;SDS011;34310;51.904;4.256;2023-03-03T02:38:10;2.78;;;2.50;;
48516;SDS011;34310;51.904;4.256;2023-03-03T02:40:48;3.25;;;2.90;;
48516;SDS011;34310;51.904;4.256;2023-03-03T02:43:56;3.28;;;2.72;;
48516;SDS011;34310;51.904;4.256;2023-03-03T02:46:25;3.20;;;2.88;;
48516;SDS011;34310;51.904;4.256;2023-03-03T02:48:53;3.28;;;2.97;;
48516;SDS011;34310;51.904;4.256;2023-03-03T02:51:21;3.03;;;2.53;;
48516;SDS011;34310;51.904;4.256;2023-03-03T02:53:48;2.65;;;2.45;;
48516;SDS011;34310;51.904;4.256;2023-03-03T02:56:15;2.53;;;2.30;;
48516;SDS011;34310;51.904;4.256;2023-03-03T02:58:43;2.70;;;2.50;;
48516;SDS011;34310;51.904;4.256;2023-03-03T03:01:10;3.03;;;2.55;;
48516;SDS011;34310;51.904;4.256;2023-03-03T03:03:37;2.58;;;2.35;;
48516;SDS011;34310;51.904;4.256;2023-03-03T03:06:05;3.20;;;2.65;;
48516;SDS011;34310;51.904;4.256;2023-03-03T03:08:33;2.40;;;2.20;;
48516;SDS011;34310;51.904;4.256;2023-03-03T03:11:00;2.65;;;2.20;;
48516;SDS011;34310;51.904;4.256;2023-03-03T03:13:28;2.67;;;2.08;;
48516;SDS011;34310;51.904;4.256;2023-03-03T03:15:57;2.35;;;2.15;;
48516;SDS011;34310;51.904;4.256;2023-03-03T03:18:25;3.30;;;2.67;;
48516;SDS011;34310;51.904;4.256;2023-03-03T03:20:53;2.45;;;2.25;;
48516;SDS011;34310;51.904;4.256;2023-03-03T03:23:20;2.40;;;2.20;;
48516;SDS011;34310;51.904;4.256;2023-03-03T03:25:47;2.72;;;2.30;;
48516;SDS011;34310;51.904;4.256;2023-03-03T03:28:15;2.95;;;2.40;;
48516;SDS011;34310;51.904;4.256;2023-03-03T03:30:44;2.40;;;2.20;;
48516;SDS011;34310;51.904;4.256;2023-03-03T03:33:11;2.33;;;1.98;;
48516;SDS011;34310;51.904;4.256;2023-03-03T03:35:38;2.50;;;2.28;;
48516;SDS011;34310;51.904;4.256;2023-03-03T03:38:10;2.42;;;2.20;;
48516;SDS011;34310;51.904;4.256;2023-03-03T03:40:38;2.85;;;2.30;;
48516;SDS011;34310;51.904;4.256;2023-03-03T03:43:07;2.53;;;2.20;;
48516;SDS011;34310;51.904;4.256;2023-03-03T03:45:34;2.00;;;1.90;;
48516;SDS011;34310;51.904;4.256;2023-03-03T03:48:02;2.75;;;2.40;;
48516;SDS011;34310;51.904;4.256;2023-03-03T03:50:29;2.65;;;2.20;;
48516;SDS011;34310;51.904;4.256;2023-03-03T03:52:56;2.92;;;2.25;;
48516;SDS011;34310;51.904;4.256;2023-03-03T03:55:24;2.38;;;2.00;;
48516;SDS011;34310;51.904;4.256;2023-03-03T03:57:51;2.78;;;2.10;;
48516;SDS011;34310;51.904;4.256;2023-03-03T04:00:18;4.03;;;2.35;;
48516;SDS011;34310;51.904;4.256;2023-03-03T04:02:46;2.53;;;2.33;;
48516;SDS011;34310;51.904;4.256;2023-03-03T04:05:14;2.50;;;2.15;;
48516;SDS011;34310;51.904;4.256;2023-03-03T04:07:42;3.67;;;2.13;;
48516;SDS011;34310;51.904;4.256;2023-03-03T04:10:10;2.42;;;1.80;;
48516;SDS011;34310;51.904;4.256;2023-03-03T04:12:37;2.53;;;1.92;;
48516;SDS011;34310;51.904;4.256;2023-03-03T04:15:06;1.98;;;1.75;;
48516;SDS011;34310;51.904;4.256;2023-03-03T04:17:35;2.40;;;2.20;;
48516;SDS011;34310;51.904;4.256;2023-03-03T04:20:03;2.45;;;2.15;;
48516;SDS011;34310;51.904;4.256;2023-03-03T04:22:32;2.78;;;2.40;;
48516;SDS011;34310;51.904;4.256;2023-03-03T04:25:04;2.50;;;2.30;;
48516;SDS011;34310;51.904;4.256;2023-03-03T04:27:33;2.45;;;2.00;;
48516;SDS011;34310;51.904;4.256;2023-03-03T04:30:01;2.83;;;2.03;;
48516;SDS011;34310;51.904;4.256;2023-03-03T04:32:30;1.88;;;1.63;;
48516;SDS011;34310;51.904;4.256;2023-03-03T04:34:59;2.50;;;2.30;;
48516;SDS011;34310;51.904;4.256;2023-03-03T04:37:33;2.10;;;1.80;;
48516;SDS011;34310;51.904;4.256;2023-03-03T04:40:05;2.05;;;1.80;;
48516;SDS011;34310;51.904;4.256;2023-03-03T04:42:33;2.47;;;1.90;;
48516;SDS011;34310;51.904;4.256;2023-03-03T04:45:01;2.45;;;1.95;;
48516;SDS011;34310;51.904;4.256;2023-03-03T04:47:29;2.25;;;1.90;;
48516;SDS011;34310;51.904;4.256;2023-03-03T04:49:57;3.00;;;2.20;;
48516;SDS011;34310;51.904;4.256;2023-03-03T04:52:25;2.13;;;1.77;;
48516;SDS011;34310;51.904;4.256;2023-03-03T04:54:53;2.35;;;2.15;;
48516;SDS011;34310;51.904;4.256;2023-03-03T04:57:21;2.90;;;2.10;;
48516;SDS011;34310;51.904;4.256;2023-03-03T04:59:48;2.47;;;1.90;;
48516;SDS011;34310;51.904;4.256;2023-03-03T05:02:16;2.33;;;2.13;;
48516;SDS011;34310;51.904;4.256;2023-03-03T05:04:44;2.05;;;1.90;;
48516;SDS011;34310;51.904;4.256;2023-03-03T05:07:11;2.78;;;2.35;;
48516;SDS011;34310;51.904;4.256;2023-03-03T05:09:38;2.40;;;2.20;;
48516;SDS011;34310;51.904;4.256;2023-03-03T05:12:06;2.75;;;2.13;;
48516;SDS011;34310;51.904;4.256;2023-03-03T05:14:33;2.58;;;2.33;;
48516;SDS011;34310;51.904;4.256;2023-03-03T05:17:01;2.58;;;2.10;;
48516;SDS011;34310;51.904;4.256;2023-03-03T05:19:29;1.92;;;1.75;;
48516;SDS011;34310;51.904;4.256;2023-03-03T05:21:57;2.55;;;2.35;;
48516;SDS011;34310;51.904;4.256;2023-03-03T05:24:25;2.40;;;2.20;;
48516;SDS011;34310;51.904;4.256;2023-03-03T05:26:52;2.53;;;2.33;;
48516;SDS011;34310;51.904;4.256;2023-03-03T05:29:20;2.72;;;2.33;;
48516;SDS011;34310;51.904;4.256;2023-03-03T05:31:47;2.65;;;2.30;;
48516;SDS011;34310;51.904;4.256;2023-03-03T05:34:15;3.00;;;2.72;;
48516;SDS011;34310;51.904;4.256;2023-03-03T05:36:42;3.63;;;2.72;;
48516;SDS011;34310;51.904;4.256;2023-03-03T05:39:10;2.83;;;2.50;;
48516;SDS011;34310;51.904;4.256;2023-03-03T05:41:37;2.90;;;2.60;;
48516;SDS011;34310;51.904;4.256;2023-03-03T05:44:05;2.55;;;2.35;;
48516;SDS011;34310;51.904;4.256;2023-03-03T05:46:33;2.67;;;2.47;;
48516;SDS011;34310;51.904;4.256;2023-03-03T05:49:00;3.00;;;2.70;;
48516;SDS011;34310;51.904;4.256;2023-03-03T05:51:28;2.50;;;2.30;;
48516;SDS011;34310;51.904;4.256;2023-03-03T05:53:55;3.22;;;2.63;;
48516;SDS011;34310;51.904;4.256;2023-03-03T05:56:22;4.20;;;2.83;;
48516;SDS011;34310;51.904;4.256;2023-03-03T05:58:50;2.55;;;2.35;;
48516;SDS011;34310;51.904;4.256;2023-03-03T06:01:17;3.00;;;2.70;;
48516;SDS011;34310;51.904;4.256;2023-03-03T06:03:44;2.78;;;2.47;;
48516;SDS011;34310;51.904;4.256;2023-03-03T06:06:11;3.22;;;2.90;;
48516;SDS011;34310;51.904;4.256;2023-03-03T06:08:42;3.42;;;3.05;;
48516;SDS011;34310;51.904;4.256;2023-03-03T06:11:09;3.50;;;3.20;;
48516;SDS011;34310;51.904;4.256;2023-03-03T06:13:38;3.42;;;2.65;;
48516;SDS011;34310;51.904;4.256;2023-03-03T06:16:07;3.53;;;3.10;;
48516;SDS011;34310;51.904;4.256;2023-03-03T06:18:35;3.40;;;3.10;;
48516;SDS011;34310;51.904;4.256;2023-03-03T06:21:02;3.05;;;2.75;;
48516;SDS011;34310;51.904;4.256;2023-03-03T06:23:30;3.45;;;3.05;;
48516;SDS011;34310;51.904;4.256;2023-03-03T06:25:57;2.97;;;2.75;;
48516;SDS011;34310;51.904;4.256;2023-03-03T06:28:25;3.85;;;3.20;;
48516;SDS011;34310;51.904;4.256;2023-03-03T06:30:55;3.83;;;3.38;;
48516;SDS011;34310;51.904;4.256;2023-03-03T06:33:23;3.63;;;3.25;;
48516;SDS011;34310;51.904;4.256;2023-03-03T06:35:50;3.53;;;3.22;;
48516;SDS011;34310;51.904;4.256;2023-03-03T06:38:19;4.40;;;3.30;;
48516;SDS011;34310;51.904;4.256;2023-03-03T06:40:46;3.75;;;3.42;;
48516;SDS011;34310;51.904;4.256;2023-03-03T06:43:14;3.55;;;3.25;;
48516;SDS011;34310;51.904;4.256;2023-03-03T06:45:41;3.50;;;3.20;;
48516;SDS011;34310;51.904;4.256;2023-03-03T06:48:10;3.80;;;3.47;;
48516;SDS011;34310;51.904;4.256;2023-03-03T06:50:37;3.95;;;3.55;;
48516;SDS011;34310;51.904;4.256;2023-03-03T06:53:12;4.20;;;3.53;;
48516;SDS011;34310;51.904;4.256;2023-03-03T06:55:41;4.03;;;3.47;;
48516;SDS011;34310;51.904;4.256;2023-03-03T06:58:11;3.63;;;3.13;;
48516;SDS011;34310;51.904;4.256;2023-03-03T07:00:44;3.53;;;3.22;;
48516;SDS011;34310;51.904;4.256;2023-03-03T07:03:17;3.35;;;3.05;;
48516;SDS011;34310;51.904;4.256;2023-03-03T07:05:48;4.05;;;3.22;;
48516;SDS011;34310;51.904;4.256;2023-03-03T07:08:18;3.45;;;3.10;;
48516;SDS011;34310;51.904;4.256;2023-03-03T07:10:48;3.80;;;3.40;;
48516;SDS011;34310;51.904;4.256;2023-03-03T07:13:24;3.38;;;3.00;;
48516;SDS011;34310;51.904;4.256;2023-03-03T07:15:54;5.18;;;3.10;;
48516;SDS011;34310;51.904;4.256;2023-03-03T07:18:26;3.20;;;2.90;;
48516;SDS011;34310;51.904;4.256;2023-03-03T07:21:17;3.95;;;3.30;;
48516;SDS011;34310;51.904;4.256;2023-03-03T07:23:56;3.20;;;2.90;;
48516;SDS011;34310;51.904;4.256;2023-03-03T07:26:26;3.10;;;2.80;;
48516;SDS011;34310;51.904;4.256;2023-03-03T07:29:31;3.15;;;2.85;;
48516;SDS011;34310;51.904;4.256;2023-03-03T07:31:53;4.15;;;3.15;;
48516;SDS011;34310;51.904;4.256;2023-03-03T07:34:26;3.20;;;2.90;;
48516;SDS011;34310;51.904;4.256;2023-03-03T07:37:09;2.88;;;2.40;;
48516;SDS011;34310;51.904;4.256;2023-03-03T07:39:43;2.97;;;2.67;;
48516;SDS011;34310;51.904;4.256;2023-03-03T07:42:25;4.07;;;3.58;;
48516;SDS011;34310;51.904;4.256;2023-03-03T07:44:54;3.75;;;3.20;;
48516;SDS011;34310;51.904;4.256;2023-03-03T07:47:26;5.03;;;3.20;;
48516;SDS011;34310;51.904;4.256;2023-03-03T07:50:07;7.88;;;3.75;;
48516;SDS011;34310;51.904;4.256;2023-03-03T07:52:42;5.75;;;3.40;;
48516;SDS011;34310;51.904;4.256;2023-03-03T07:55:29;5.18;;;3.28;;
48516;SDS011;34310;51.904;4.256;2023-03-03T08:03:29;4.85;;;3.40;;
48516;SDS011;34310;51.904;4.256;2023-03-03T08:06:03;4.18;;;3.20;;
48516;SDS011;34310;51.904;4.256;2023-03-03T08:08:56;3.40;;;3.10;;
48516;SDS011;34310;51.904;4.256;2023-03-03T08:14:47;3.35;;;2.78;;
48516;SDS011;34310;51.904;4.256;2023-03-03T08:17:19;3.42;;;3.13;;
48516;SDS011;34310;51.904;4.256;2023-03-03T08:19:49;3.28;;;2.97;;
48516;SDS011;34310;51.904;4.256;2023-03-03T08:22:18;3.38;;;3.08;;
48516;SDS011;34310;51.904;4.256;2023-03-03T08:25:01;3.13;;;2.78;;
48516;SDS011;34310;51.904;4.256;2023-03-03T08:27:28;3.50;;;2.90;;
48516;SDS011;34310;51.904;4.256;2023-03-03T08:29:56;3.78;;;3.08;;
48516;SDS011;34310;51.904;4.256;2023-03-03T08:32:23;3.97;;;2.83;;
48516;SDS011;34310;51.904;4.256;2023-03-03T08:34:50;3.20;;;2.72;;
48516;SDS011;34310;51.904;4.256;2023-03-03T08:37:18;3.28;;;2.80;;
48516;SDS011;34310;51.904;4.256;2023-03-03T08:39:45;3.65;;;2.83;;
48516;SDS011;34310;51.904;4.256;2023-03-03T08:42:12;4.93;;;3.17;;
48516;SDS011;34310;51.904;4.256;2023-03-03T08:44:41;3.30;;;2.80;;
48516;SDS011;34310;51.904;4.256;2023-03-03T08:47:08;4.70;;;2.80;;
48516;SDS011;34310;51.904;4.256;2023-03-03T08:49:35;6.55;;;2.95;;
48516;SDS011;34310;51.904;4.256;2023-03-03T08:52:03;3.70;;;2.80;;
48516;SDS011;34310;51.904;4.256;2023-03-03T08:54:30;5.85;;;3.10;;
48516;SDS011;34310;51.904;4.256;2023-03-03T08:56:57;2.90;;;2.63;;
48516;SDS011;34310;51.904;4.256;2023-03-03T08:59:25;3.08;;;2.78;;
48516;SDS011;34310;51.904;4.256;2023-03-03T09:01:52;2.90;;;2.60;;
48516;SDS011;34310;51.904;4.256;2023-03-03T09:04:20;3.42;;;2.70;;
48516;SDS011;34310;51.904;4.256;2023-03-03T09:06:47;2.72;;;2.53;;
48516;SDS011;34310;51.904;4.256;2023-03-03T09:09:14;3.28;;;2.60;;
48516;SDS011;34310;51.904;4.256;2023-03-03T09:11:42;4.68;;;2.90;;
48516;SDS011;34310;51.904;4.256;2023-03-03T09:14:10;3.13;;;2.10;;
48516;SDS011;34310;51.904;4.256;2023-03-03T09:16:41;2.90;;;2.60;;
48516;SDS011;34310;51.904;4.256;2023-03-03T09:19:25;3.13;;;2.63;;
48516;SDS011;34310;51.904;4.256;2023-03-03T09:21:56;2.83;;;2.60;;
48516;SDS011;34310;51.904;4.256;2023-03-03T09:24:29;2.80;;;2.42;;
48516;SDS011;34310;51.904;4.256;2023-03-03T09:26:57;3.35;;;2.58;;
48516;SDS011;34310;51.904;4.256;2023-03-03T09:29:25;2.70;;;2.50;;
48516;SDS011;34310;51.904;4.256;2023-03-03T09:32:06;4.57;;;2.60;;
48516;SDS011;34310;51.904;4.256;2023-03-03T09:34:47;3.05;;;2.75;;
48516;SDS011;34310;51.904;4.256;2023-03-03T09:39:49;4.10;;;2.70;;
48516;SDS011;34310;51.904;4.256;2023-03-03T09:45:50;4.28;;;3.20;;
48516;SDS011;34310;51.904;4.256;2023-03-03T09:48:32;4.95;;;4.00;;
48516;SDS011;34310;51.904;4.256;2023-03-03T10:02:52;5.03;;;4.22;;
48516;SDS011;34310;51.904;4.256;2023-03-03T10:05:43;4.70;;;3.85;;
48516;SDS011;34310;51.904;4.256;2023-03-03T10:14:00;5.07;;;3.60;;
48516;SDS011;34310;51.904;4.256;2023-03-03T10:22:20;4.18;;;3.47;;
48516;SDS011;34310;51.904;4.256;2023-03-03T10:41:33;2.45;;;2.05;;
48516;SDS011;34310;51.904;4.256;2023-03-03T10:44:28;2.60;;;2.33;;
48516;SDS011;34310;51.904;4.256;2023-03-03T10:55:22;2.50;;;2.05;;
48516;SDS011;34310;51.904;4.256;2023-03-03T11:02:02;2.88;;;1.95;;
48516;SDS011;34310;51.904;4.256;2023-03-03T11:18:02;2.00;;;1.65;;
48516;SDS011;34310;51.904;4.256;2023-03-03T11:26:49;1.95;;;1.60;;
48516;SDS011;34310;51.904;4.256;2023-03-03T11:34:55;1.73;;;1.52;;
48516;SDS011;34310;51.904;4.256;2023-03-03T11:37:45;2.38;;;1.65;;
48516;SDS011;34310;51.904;4.256;2023-03-03T11:40:36;1.83;;;1.50;;
48516;SDS011;34310;51.904;4.256;2023-03-03T11:47:02;1.88;;;1.52;;
48516;SDS011;34310;51.904;4.256;2023-03-03T11:49:13;2.50;;;1.60;;
48516;SDS011;34310;51.904;4.256;2023-03-03T11:51:45;2.38;;;1.50;;
48516;SDS011;34310;51.904;4.256;2023-03-03T11:54:29;1.98;;;1.45;;
48516;SDS011;34310;51.904;4.256;2023-03-03T11:57:15;2.10;;;1.70;;
48516;SDS011;34310;51.904;4.256;2023-03-03T12:02:54;1.73;;;1.30;;
48516;SDS011;34310;51.904;4.256;2023-03-03T12:08:32;1.77;;;1.08;;
48516;SDS011;34310;51.904;4.256;2023-03-03T12:11:20;1.17;;;1.08;;
48516;SDS011;34310;51.904;4.256;2023-03-03T12:13:57;1.63;;;1.10;;
48516;SDS011;34310;51.904;4.256;2023-03-03T12:22:10;1.27;;;1.15;;
48516;SDS011;34310;51.904;4.256;2023-03-03T12:24:52;1.20;;;1.10;;
48516;SDS011;34310;51.904;4.256;2023-03-03T12:30:33;1.40;;;1.10;;
48516;SDS011;34310;51.904;4.256;2023-03-03T12:44:50;1.02;;;0.90;;
48516;SDS011;34310;51.904;4.256;2023-03-03T12:50:13;1.65;;;1.08;;
48516;SDS011;34310;51.904;4.256;2023-03-03T13:07:04;1.23;;;0.80;;
48516;SDS011;34310;51.904;4.256;2023-03-03T13:21:09;1.45;;;0.80;;
48516;SDS011;34310;51.904;4.256;2023-03-03T13:26:36;1.70;;;1.00;;
48516;SDS011;34310;51.904;4.256;2023-03-03T13:32:07;1.17;;;1.02;;
48516;SDS011;34310;51.904;4.256;2023-03-03T13:37:26;1.42;;;0.88;;
48516;SDS011;34310;51.904;4.256;2023-03-03T13:42:39;1.67;;;0.98;;
48516;SDS011;34310;51.904;4.256;2023-03-03T13:45:29;1.05;;;0.80;;
48516;SDS011;34310;51.904;4.256;2023-03-03T13:51:03;1.77;;;0.90;;
48516;SDS011;34310;51.904;4.256;2023-03-03T14:05:15;1.27;;;0.85;;
48516;SDS011;34310;51.904;4.256;2023-03-03T14:07:59;1.42;;;1.02;;
48516;SDS011;34310;51.904;4.256;2023-03-03T14:16:04;0.85;;;0.77;;
48516;SDS011;34310;51.904;4.256;2023-03-03T14:27:33;1.35;;;0.88;;
48516;SDS011;34310;51.904;4.256;2023-03-03T14:33:21;1.40;;;0.93;;
48516;SDS011;34310;51.904;4.256;2023-03-03T14:43:44;0.80;;;0.65;;
48516;SDS011;34310;51.904;4.256;2023-03-03T14:49:27;0.98;;;0.70;;
48516;SDS011;34310;51.904;4.256;2023-03-03T14:51:55;0.95;;;0.75;;
48516;SDS011;34310;51.904;4.256;2023-03-03T14:54:29;0.47;;;0.47;;
48516;SDS011;34310;51.904;4.256;2023-03-03T14:57:06;1.30;;;0.80;;
48516;SDS011;34310;51.904;4.256;2023-03-03T14:59:58;1.00;;;0.90;;
48516;SDS011;34310;51.904;4.256;2023-03-03T15:02:36;2.10;;;0.70;;
48516;SDS011;34310;51.904;4.256;2023-03-03T15:05:17;0.75;;;0.73;;
48516;SDS011;34310;51.904;4.256;2023-03-03T15:07:52;0.60;;;0.60;;
48516;SDS011;34310;51.904;4.256;2023-03-03T15:10:44;2.25;;;0.70;;
48516;SDS011;34310;51.904;4.256;2023-03-03T15:13:32;1.00;;;0.80;;
48516;SDS011;34310;51.904;4.256;2023-03-03T15:16:02;1.15;;;0.88;;
48516;SDS011;34310;51.904;4.256;2023-03-03T15:18:30;1.35;;;1.00;;
48516;SDS011;34310;51.904;4.256;2023-03-03T15:23:44;1.50;;;1.00;;
48516;SDS011;34310;51.904;4.256;2023-03-03T15:32:12;1.20;;;1.10;;
48516;SDS011;34310;51.904;4.256;2023-03-03T15:40:25;1.13;;;1.02;;
48516;SDS011;34310;51.904;4.256;2023-03-03T15:54:35;0.60;;;0.60;;
48516;SDS011;34310;51.904;4.256;2023-03-03T15:57:29;0.70;;;0.70;;
48516;SDS011;34310;51.904;4.256;2023-03-03T16:00:47;0.95;;;0.70;;
48516;SDS011;34310;51.904;4.256;2023-03-03T16:03:37;0.90;;;0.80;;
48516;SDS011;34310;51.904;4.256;2023-03-03T16:11:43;0.98;;;0.85;;
48516;SDS011;34310;51.904;4.256;2023-03-03T16:14:42;0.88;;;0.80;;
48516;SDS011;34310;51.904;4.256;2023-03-03T16:31:22;0.70;;;0.70;;
48516;SDS011;34310;51.904;4.256;2023-03-03T16:39:50;0.95;;;0.85;;
48516;SDS011;34310;51.904;4.256;2023-03-03T16:43:40;1.00;;;0.90;;
48516;SDS011;34310;51.904;4.256;2023-03-03T16:46:31;1.55;;;0.80;;
48516;SDS011;34310;51.904;4.256;2023-03-03T16:52:10;0.95;;;0.80;;
48516;SDS011;34310;51.904;4.256;2023-03-03T16:54:42;0.70;;;0.70;;
48516;SDS011;34310;51.904;4.256;2023-03-03T17:08:04;0.85;;;0.70;;
48516;SDS011;34310;51.904;4.256;2023-03-03T17:22:08;0.82;;;0.77;;
48516;SDS011;34310;51.904;4.256;2023-03-03T17:27:14;0.90;;;0.77;;
48516;SDS011;34310;51.904;4.256;2023-03-03T17:44:23;1.95;;;1.17;;
48516;SDS011;34310;51.904;4.256;2023-03-03T17:46:56;1.00;;;0.80;;
48516;SDS011;34310;51.904;4.256;2023-03-03T17:49:35;0.93;;;0.70;;
48516;SDS011;34310;51.904;4.256;2023-03-03T17:58:26;1.63;;;0.85;;
48516;SDS011;34310;51.904;4.256;2023-03-03T18:01:13;1.48;;;1.00;;
48516;SDS011;34310;51.904;4.256;2023-03-03T18:09:51;1.20;;;0.90;;
48516;SDS011;34310;51.904;4.256;2023-03-03T18:20:56;1.70;;;0.90;;
48516;SDS011;34310;51.904;4.256;2023-03-03T18:29:19;2.00;;;1.08;;
48516;SDS011;34310;51.904;4.256;2023-03-03T18:34:26;1.42;;;0.80;;
48516;SDS011;34310;51.904;4.256;2023-03-03T18:37:08;1.00;;;0.90;;
48516;SDS011;34310;51.904;4.256;2023-03-03T18:50:44;3.55;;;1.17;;
48516;SDS011;34310;51.904;4.256;2023-03-03T18:55:56;1.55;;;1.10;;
48516;SDS011;34310;51.904;4.256;2023-03-03T18:58:28;2.60;;;1.10;;
48516;SDS011;34310;51.904;4.256;2023-03-03T19:09:19;1.77;;;1.00;;
48516;SDS011;34310;51.904;4.256;2023-03-03T19:12:14;1.80;;;1.13;;
48516;SDS011;34310;51.904;4.256;2023-03-03T19:14:46;1.50;;;0.90;;
48516;SDS011;34310;51.904;4.256;2023-03-03T19:20:04;3.55;;;1.40;;
48516;SDS011;34310;51.904;4.256;2023-03-03T19:22:50;13.93;;;2.78;;
48516;SDS011;34310;51.904;4.256;2023-03-03T19:25:36;17.02;;;3.75;;
48516;SDS011;34310;51.904;4.256;2023-03-03T19:28:08;14.45;;;4.03;;
48516;SDS011;34310;51.904;4.256;2023-03-03T19:30:55;11.17;;;3.67;;
48516;SDS011;34310;51.904;4.256;2023-03-03T19:41:26;20.83;;;6.05;;
48516;SDS011;34310;51.904;4.256;2023-03-03T19:44:08;16.25;;;5.57;;
48516;SDS011;34310;51.904;4.256;2023-03-03T20:00:43;18.27;;;8.50;;
48516;SDS011;34310;51.904;4.256;2023-03-03T20:16:30;18.05;;;8.68;;
48516;SDS011;34310;51.904;4.256;2023-03-03T20:24:21;17.88;;;8.48;;
48516;SDS011;34310;51.904;4.256;2023-03-03T20:27:19;17.05;;;9.10;;
48516;SDS011;34310;51.904;4.256;2023-03-03T20:32:50;20.58;;;8.65;;
48516;SDS011;34310;51.904;4.256;2023-03-03T20:54:45;19.05;;;10.35;;
48516;SDS011;34310;51.904;4.256;2023-03-03T20:57:39;18.40;;;10.05;;
48516;SDS011;34310;51.904;4.256;2023-03-03T21:00:32;18.08;;;10.13;;
48516;SDS011;34310;51.904;4.256;2023-03-03T21:03:12;21.98;;;10.75;;
48516;SDS011;34310;51.904;4.256;2023-03-03T21:08:44;20.42;;;10.52;;
48516;SDS011;34310;51.904;4.256;2023-03-03T21:11:12;19.73;;;9.57;;
48516;SDS011;34310;51.904;4.256;2023-03-03T21:13:41;18.17;;;10.48;;
48516;SDS011;34310;51.904;4.256;2023-03-03T21:16:32;18.67;;;9.77;;
48516;SDS011;34310;51.904;4.256;2023-03-03T21:19:04;19.65;;;9.90;;
48516;SDS011;34310;51.904;4.256;2023-03-03T21:21:36;19.95;;;9.63;;
48516;SDS011;34310;51.904;4.256;2023-03-03T21:24:06;19.30;;;9.70;;
48516;SDS011;34310;51.904;4.256;2023-03-03T21:26:54;18.42;;;9.57;;
48516;SDS011;34310;51.904;4.256;2023-03-03T21:29:27;18.48;;;9.63;;
48516;SDS011;34310;51.904;4.256;2023-03-03T21:36:59;16.75;;;9.65;;
48516;SDS011;34310;51.904;4.256;2023-03-03T21:42:01;18.23;;;9.05;;
48516;SDS011;34310;51.904;4.256;2023-03-03T21:45:07;19.25;;;9.40;;
48516;SDS011;34310;51.904;4.256;2023-03-03T21:47:22;16.35;;;9.60;;
48516;SDS011;34310;51.904;4.256;2023-03-03T21:49:52;18.63;;;8.85;;
48516;SDS011;34310;51.904;4.256;2023-03-03T21:52:21;18.33;;;8.50;;
48516;SDS011;34310;51.904;4.256;2023-03-03T21:54:49;14.52;;;8.25;;
48516;SDS011;34310;51.904;4.256;2023-03-03T21:57:17;16.58;;;8.70;;
48516;SDS011;34310;51.904;4.256;2023-03-03T21:59:44;16.63;;;7.90;;
48516;SDS011;34310;51.904;4.256;2023-03-03T22:02:12;15.52;;;8.60;;
48516;SDS011;34310;51.904;4.256;2023-03-03T22:04:39;13.77;;;7.60;;
48516;SDS011;34310;51.904;4.256;2023-03-03T22:07:07;13.10;;;7.38;;
48516;SDS011;34310;51.904;4.256;2023-03-03T22:09:35;15.02;;;7.72;;
48516;SDS011;34310;51.904;4.256;2023-03-03T22:12:03;19.42;;;8.00;;
48516;SDS011;34310;51.904;4.256;2023-03-03T22:14:31;14.00;;;7.55;;
48516;SDS011;34310;51.904;4.256;2023-03-03T22:16:59;15.65;;;7.43;;
48516;SDS011;34310;51.904;4.256;2023-03-03T22:19:26;12.30;;;6.93;;
48516;SDS011;34310;51.904;4.256;2023-03-03T22:21:53;14.05;;;7.28;;
48516;SDS011;34310;51.904;4.256;2023-03-03T22:24:21;12.35;;;7.22;;
48516;SDS011;34310;51.904;4.256;2023-03-03T22:26:48;12.73;;;6.60;;
48516;SDS011;34310;51.904;4.256;2023-03-03T22:29:15;14.48;;;6.80;;
48516;SDS011;34310;51.904;4.256;2023-03-03T22:31:48;12.82;;;6.70;;
48516;SDS011;34310;51.904;4.256;2023-03-03T22:34:16;11.63;;;6.50;;